< Typhoon 200009 2000 Season Typhoon 200011 >
Typhoon 200010 (BILIS)
General InformationDetailed Track InformationTrack Information on Google MapsList of All Images || Disaster Info.ResourceGoogle EarthGE AnimationAtom FeedGeoJSON
Detalied Best Track Wind (Time Zone = UTC)
Year Month Day Hour Lat. Long. Wind (kt) Gust (kt) Direc. of Major Storm Axis Radius of Major Storm Axis (nm) Radius of Minor Storm Axis (nm) Direc. of Major Gale Axis Radius of Major Gale Axis (nm) Radius of Minor Gale Axis (nm) Image
2000 8 18 12 11.5 137.0 0 0 - - - - - - Image
2000 8 18 18 12.5 136.6 0 0 - - - - - - Image
2000 8 19 00 13.4 136.0 0 0 - - - - - - Image
2000 8 19 06 14.6 135.6 35 0 - - - symmetric 60 60 Image
2000 8 19 12 15.4 134.8 45 0 - - - symmetric 70 70 Image
2000 8 19 18 16.1 133.5 50 0 - - - symmetric 80 80 Image
2000 8 20 00 16.4 132.5 50 0 - - - symmetric 180 180 Image
2000 8 20 06 16.7 131.8 55 0 symmetric 40 40 symmetric 190 190 Image
2000 8 20 12 17.5 130.8 70 0 symmetric 75 75 symmetric 240 240 Image
2000 8 20 18 18.2 129.6 80 0 symmetric 90 90 symmetric 240 240 Image
2000 8 21 00 18.8 128.3 90 0 symmetric 100 100 symmetric 240 240 Image
2000 8 21 06 19.4 127.1 90 0 symmetric 110 110 symmetric 240 240 Image
2000 8 21 12 19.7 126.1 100 0 symmetric 120 120 symmetric 240 240 Image
2000 8 21 18 20.3 125.1 110 0 symmetric 120 120 symmetric 220 220 Image
2000 8 22 00 20.8 124.1 110 0 symmetric 120 120 symmetric 220 220 Image
2000 8 22 06 21.5 123.0 110 0 symmetric 120 120 symmetric 220 220 Image
2000 8 22 12 22.5 122.0 110 0 symmetric 110 110 symmetric 220 220 Image
2000 8 22 15 23.1 121.3 100 0 symmetric 100 100 symmetric 220 220 Image
2000 8 22 18 23.6 120.0 90 0 symmetric 90 90 E 240 200 Image
2000 8 22 21 23.9 119.4 80 0 symmetric 80 80 E 240 200 Image
2000 8 23 00 24.2 118.9 65 0 symmetric 70 70 E 240 200 Image
2000 8 23 06 25.2 117.9 45 0 - - - E 220 180 Image
2000 8 23 12 25.2 116.5 0 0 - - - - - - Image
2000 8 23 18 25.4 116.5 0 0 - - - - - - Image
2000 8 24 00 26.0 116.6 0 0 - - - - - - Image
2000 8 24 06 27.2 116.5 0 0 - - - - - - Image
2000 8 24 12 28.4 116.5 0 0 - - - - - - Image
2000 8 24 18 29.1 116.7 0 0 - - - - - - Image
2000 8 25 00 30.2 117.0 0 0 - - - - - - Image
2000 8 25 06 31.6 118.3 0 0 - - - - - - Image
2000 8 25 12 32.0 119.8 0 0 - - - - - - Image
2000 8 25 18 33.3 120.9 0 0 - - - - - - Image
2000 8 26 00 33.8 121.9 0 0 - - - - - - Image
2000 8 26 06 34.4 122.9 0 0 - - - - - - Image
2000 8 26 12 35.4 123.9 0 0 - - - - - - Image
2000 8 26 18 36.1 124.8 0 0 - - - - - - Image
2000 8 27 00 37.2 125.4 0 0 - - - - - - Image
2000 8 27 06 38.0 126.2 0 0 - - - - - - Image
Japan Meteorological Agency Best Track Data | Correction Date : 2001-12-21
< Typhoon 200009 2000 Season Typhoon 200011 >

Help